Buoy 62725

sailwx.info

Track history (hours):
 
Tides and Currents Weather Stations Pressure Air Temp Water Temp Dewpoint Dewpoint Depression Visibility Wind Speed Wind Dir Waves Ship Positions

Drifting buoy 62725

Last reported at 2018-Jun-18 22:00 UTC. Time now 2018-Jun-18 23:17 UTC.
Position N 28°20' W 024°05'.

Date/timePositionNaut miles runAvg speedWind from/ knotsBaromVisibWave heightAir tempDewpointWater temp
2018-Jun-18 22:00N 28°20' W 024°05'1 0.8
2018-Jun-18 21:00N 28°21' W 024°04'0 0.0
2018-Jun-18 20:00N 28°21' W 024°04'1 0.6
2018-Jun-18 19:00N 28°22' W 024°04'1 0.6
2018-Jun-18 18:00N 28°22' W 024°04'0 0.0
2018-Jun-18 17:00N 28°22' W 024°04'0 0.0
2018-Jun-18 16:00N 28°22' W 024°04'2 0.5
2018-Jun-18 12:00N 28°24' W 024°03'0 0.0
2018-Jun-18 11:00N 28°24' W 024°03'1 1.2
2018-Jun-18 10:00N 28°25' W 024°02'1 1.2
2018-Jun-18 09:00N 28°26' W 024°02'0 0.0
2018-Jun-18 08:00N 28°26' W 024°02'1 0.5
2018-Jun-18 07:00N 28°26' W 024°01'1 1.2
2018-Jun-18 06:00N 28°27' W 024°01'2 2.1
2018-Jun-18 05:00N 28°29' W 024°00'0 0.0
2018-Jun-18 04:00N 28°29' W 024°00'0 0.0
2018-Jun-17 23:00N 28°29' W 024°00'1 0.8
2018-Jun-17 22:00N 28°29' W 023°59'1 1.2
2018-Jun-17 21:00N 28°30' W 023°58'0 0.0
2018-Jun-17 20:00N 28°30' W 023°58'1 1.1
2018-Jun-17 19:00N 28°30' W 023°57'1 1.2
2018-Jun-17 18:00N 28°31' W 023°57'0 0.0
2018-Jun-17 17:00N 28°31' W 023°57'0 0.0
2018-Jun-17 16:00N 28°31' W 023°57'3 0.7
2018-Jun-17 12:00N 28°32' W 023°54'2 1.7
2018-Jun-17 11:00N 28°32' W 023°52'0 0.0
2018-Jun-17 10:00N 28°32' W 023°52'1 1.2
2018-Jun-17 09:00N 28°33' W 023°51'0 0.0
2018-Jun-17 08:00N 28°33' W 023°51'2 1.7
2018-Jun-17 07:00N 28°34' W 023°49'5 2.4
2018-Jun-17 05:00N 28°35' W 023°44'0 0.0
2018-Jun-17 04:00N 28°35' W 023°44'0 0.0
2018-Jun-17 00:00N 28°35' W 023°44'1 0.5
2018-Jun-16 23:00N 28°35' W 023°43'1 1.1
2018-Jun-16 22:00N 28°35' W 023°42'2 1.6
2018-Jun-16 21:00N 28°36' W 023°41'0 0.0
2018-Jun-16 20:00N 28°36' W 023°41'1 0.8
2018-Jun-16 19:00N 28°37' W 023°40'2 2.2
2018-Jun-16 18:00N 28°36' W 023°38'0 0.0
2018-Jun-16 17:00N 28°36' W 023°38'0 0.0
2018-Jun-16 15:00N 28°36' W 023°38'2 1.6
2018-Jun-16 14:00N 28°36' W 023°36'2 0.6
2018-Jun-16 11:00N 28°37' W 023°34'2 2.0
2018-Jun-16 10:00N 28°38' W 023°32'0 0.0
2018-Jun-16 09:00N 28°38' W 023°32'2 2.2
2018-Jun-16 08:00N 28°38' W 023°30'0 0.0
2018-Jun-16 07:00N 28°38' W 023°30'3 3.2
2018-Jun-16 06:00N 28°40' W 023°27'0 0.0
2018-Jun-16 05:00N 28°40' W 023°27'0 0.0
2018-Jun-16 04:00N 28°40' W 023°27'0 0.0
2018-Jun-15 23:00N 28°40' W 023°27'1 0.5
2018-Jun-15 22:00N 28°40' W 023°26'2 1.6
2018-Jun-15 21:00N 28°40' W 023°25'0 0.0
2018-Jun-15 20:00N 28°40' W 023°25'0 0.0
2018-Jun-15 19:00N 28°40' W 023°25'2 1.7
2018-Jun-15 18:00N 28°41' W 023°23'0 0.0
2018-Jun-15 17:00N 28°41' W 023°23'2 1.7
2018-Jun-15 16:00N 28°41' W 023°21'0 0.0
2018-Jun-15 15:00N 28°41' W 023°21'2 0.7
2018-Jun-15 12:00N 28°43' W 023°19'1 1.2
2018-Jun-15 11:00N 28°43' W 023°18'1 0.5
2018-Jun-15 10:00N 28°43' W 023°17'1 0.6
2018-Jun-15 09:00N 28°44' W 023°17'1 0.5
2018-Jun-15 08:00N 28°44' W 023°17'2 2.0
2018-Jun-15 07:00N 28°45' W 023°15'1 0.6
2018-Jun-15 06:00N 28°46' W 023°15'1 0.5
2018-Jun-15 05:00N 28°46' W 023°14'2 2.2
2018-Jun-15 04:00N 28°46' W 023°12'2 2.2
2018-Jun-15 03:00N 28°46' W 023°14'3 0.8
2018-Jun-14 23:00N 28°47' W 023°11'0 0.0
2018-Jun-14 22:00N 28°47' W 023°11'1 0.8
2018-Jun-14 21:00N 28°47' W 023°10'1 0.5
2018-Jun-14 20:00N 28°47' W 023°10'1 1.1
2018-Jun-14 19:00N 28°47' W 023°08'0 0.0
2018-Jun-14 18:00N 28°47' W 023°08'0 0.0
2018-Jun-14 17:00N 28°47' W 023°08'6 5.6
2018-Jun-14 16:00N 28°49' W 023°02'0 0.0
2018-Jun-14 15:00N 28°49' W 023°02'1 0.4
2018-Jun-14 12:00N 28°49' W 023°01'0 0.0
2018-Jun-14 11:00N 28°49' W 023°01'1 1.2
2018-Jun-14 10:00N 28°50' W 023°00'1 1.2
2018-Jun-14 09:00N 28°51' W 023°00'2 2.0
2018-Jun-14 08:00N 28°52' W 022°58'1 1.3
2018-Jun-14 07:00N 28°51' W 022°59'3 2.6
2018-Jun-14 06:00N 28°53' W 022°58'0 0.0
2018-Jun-14 05:00N 28°53' W 022°58'3 3.2
2018-Jun-14 04:00N 28°56' W 022°55'3 2.9
2018-Jun-14 03:00N 28°53' W 022°57'3 1.0
2018-Jun-14 00:00N 28°56' W 022°55'0 0.0
2018-Jun-13 23:00N 28°56' W 022°55'0 0.0
2018-Jun-13 22:00N 28°56' W 022°55'1 0.6
2018-Jun-13 21:00N 28°56' W 022°55'1 0.5
2018-Jun-13 19:00N 28°56' W 022°54'1 0.5
2018-Jun-13 18:00N 28°56' W 022°53'1 0.5
2018-Jun-13 17:00N 28°56' W 022°53'1 0.5
2018-Jun-13 16:00N 28°56' W 022°53'0 0.0
2018-Jun-13 15:00N 28°56' W 022°53'4 1.4
2018-Jun-13 12:00N 28°56' W 022°49'1 1.2
2018-Jun-13 11:00N 28°57' W 022°47'1 1.2
2018-Jun-13 10:00N 28°58' W 022°46'0 0.0
2018-Jun-13 09:00N 28°58' W 022°46'2 2.0
2018-Jun-13 08:00N 28°59' W 022°44'1 0.4
2018-Jun-13 06:00N 28°59' W 022°44'0 0.0
2018-Jun-13 05:00N 28°59' W 022°44'3 2.8
2018-Jun-13 04:00N 29°01' W 022°41'1 0.1
2018-Jun-12 23:00N 29°02' W 022°41'0 0.0
2018-Jun-12 22:00N 29°02' W 022°41'1 0.8
2018-Jun-12 21:00N 29°02' W 022°41'1 0.8
2018-Jun-12 20:00N 29°03' W 022°40'1 0.5
2018-Jun-12 19:00N 29°03' W 022°40'0 0.0
2018-Jun-12 18:00N 29°03' W 022°40'1 0.8
2018-Jun-12 17:00N 29°04' W 022°39'0 0.0
2018-Jun-12 16:00N 29°04' W 022°39'0 0.0
2018-Jun-12 15:00N 29°04' W 022°39'4 1.2
2018-Jun-12 12:00N 29°04' W 022°35'0 0.0
2018-Jun-12 11:00N 29°04' W 022°35'1 1.0
2018-Jun-12 10:00N 29°04' W 022°34'2 0.8
2018-Jun-12 08:00N 29°04' W 022°32'0 0.0
2018-Jun-12 07:00N 29°04' W 022°32'1 0.5
2018-Jun-12 06:00N 29°04' W 022°31'1 1.2
2018-Jun-12 05:00N 29°04' W 022°30'3 3.2
2018-Jun-12 04:00N 29°06' W 022°27'1 0.1
2018-Jun-11 23:00N 29°06' W 022°26'1 1.3
2018-Jun-11 22:00N 29°07' W 022°26'1 0.3
2018-Jun-11 20:00N 29°07' W 022°25'1 1.3
2018-Jun-11 19:00N 29°08' W 022°25'1 0.5
2018-Jun-11 18:00N 29°08' W 022°24'1 0.8
2018-Jun-11 17:00N 29°09' W 022°23'0 0.0
2018-Jun-11 16:00N 29°09' W 022°23'4 0.9
2018-Jun-11 11:00N 29°13' W 022°20'1 0.8
2018-Jun-11 10:00N 29°13' W 022°20'0 0.0
2018-Jun-11 08:00N 29°13' W 022°20'1 0.6
2018-Jun-11 07:00N 29°14' W 022°20'1 0.5
2018-Jun-11 06:00N 29°14' W 022°19'3 3.4
2018-Jun-11 05:00N 29°15' W 022°16'3 3.4
2018-Jun-11 04:00N 29°14' W 022°19'4 0.8
2018-Jun-10 23:00N 29°15' W 022°15'1 1.2
2018-Jun-10 22:00N 29°16' W 022°14'0 0.0
2018-Jun-10 21:00N 29°16' W 022°14'1 0.6
2018-Jun-10 20:00N 29°16' W 022°14'1 1.2
2018-Jun-10 19:00N 29°17' W 022°13'1 1.2
2018-Jun-10 18:00N 29°17' W 022°11'1 0.3
2018-Jun-10 16:00N 29°18' W 022°11'2 0.5
2018-Jun-10 12:00N 29°19' W 022°09'1 0.6
2018-Jun-10 11:00N 29°19' W 022°09'1 0.3
2018-Jun-10 09:00N 29°19' W 022°08'1 0.6
2018-Jun-10 08:00N 29°20' W 022°08'1 1.2
2018-Jun-10 07:00N 29°19' W 022°07'0 0.0
2018-Jun-10 06:00N 29°19' W 022°07'5 4.6
2018-Jun-10 05:00N 29°21' W 022°02'5 5.0
2018-Jun-10 04:00N 29°19' W 022°08'6 1.2
2018-Jun-09 23:00N 29°22' W 022°01'1 0.8
2018-Jun-09 22:00N 29°22' W 022°01'1 0.8
2018-Jun-09 21:00N 29°23' W 022°00'0 0.0
2018-Jun-09 20:00N 29°23' W 022°00'1 0.6
2018-Jun-09 19:00N 29°23' W 022°00'1 1.2
2018-Jun-09 18:00N 29°24' W 021°59'0 0.0
2018-Jun-09 17:00N 29°24' W 021°59'0 0.0
2018-Jun-09 16:00N 29°24' W 021°59'3 0.8
2018-Jun-09 12:00N 29°26' W 021°56'1 0.8
2018-Jun-09 11:00N 29°27' W 021°56'1 0.6
2018-Jun-09 10:00N 29°28' W 021°56'0 0.0
2018-Jun-09 09:00N 29°28' W 021°56'1 0.5
2018-Jun-09 08:00N 29°28' W 021°55'1 1.0
2018-Jun-09 07:00N 29°28' W 021°54'0 0.0
2018-Jun-09 06:00N 29°28' W 021°54'6 5.5
2018-Jun-09 05:00N 29°31' W 021°49'1 0.1
2018-Jun-08 23:00N 29°32' W 021°50'1 1.2
2018-Jun-08 22:00N 29°32' W 021°49'  
Track history (hours):
 
Tides and Currents Weather Stations Pressure Air Temp Water Temp Dewpoint Dewpoint Depression Visibility Wind Speed Wind Dir Waves Ship Positions

Drifting buoy 62725

Last reported at 2018-Jun-18 22:00 UTC. Time now 2018-Jun-18 23:17 UTC.
Position N 28°20' W 024°05'.

Date/timePositionNaut miles runAvg speedWind from/ knotsBaromVisibWave heightAir tempDewpointWater temp
2018-Jun-18 22:00N 28°20' W 024°05'1 0.8
2018-Jun-18 21:00N 28°21' W 024°04'0 0.0
2018-Jun-18 20:00N 28°21' W 024°04'1 0.6
2018-Jun-18 19:00N 28°22' W 024°04'1 0.6
2018-Jun-18 18:00N 28°22' W 024°04'0 0.0
2018-Jun-18 17:00N 28°22' W 024°04'0 0.0
2018-Jun-18 16:00N 28°22' W 024°04'2 0.5
2018-Jun-18 12:00N 28°24' W 024°03'0 0.0
2018-Jun-18 11:00N 28°24' W 024°03'1 1.2
2018-Jun-18 10:00N 28°25' W 024°02'1 1.2
2018-Jun-18 09:00N 28°26' W 024°02'0 0.0
2018-Jun-18 08:00N 28°26' W 024°02'1 0.5
2018-Jun-18 07:00N 28°26' W 024°01'1 1.2
2018-Jun-18 06:00N 28°27' W 024°01'2 2.1
2018-Jun-18 05:00N 28°29' W 024°00'0 0.0
2018-Jun-18 04:00N 28°29' W 024°00'0 0.0
2018-Jun-17 23:00N 28°29' W 024°00'1 0.8
2018-Jun-17 22:00N 28°29' W 023°59'1 1.2
2018-Jun-17 21:00N 28°30' W 023°58'0 0.0
2018-Jun-17 20:00N 28°30' W 023°58'1 1.1
2018-Jun-17 19:00N 28°30' W 023°57'1 1.2
2018-Jun-17 18:00N 28°31' W 023°57'0 0.0
2018-Jun-17 17:00N 28°31' W 023°57'0 0.0
2018-Jun-17 16:00N 28°31' W 023°57'3 0.7
2018-Jun-17 12:00N 28°32' W 023°54'2 1.7
2018-Jun-17 11:00N 28°32' W 023°52'0 0.0
2018-Jun-17 10:00N 28°32' W 023°52'1 1.2
2018-Jun-17 09:00N 28°33' W 023°51'0 0.0
2018-Jun-17 08:00N 28°33' W 023°51'2 1.7
2018-Jun-17 07:00N 28°34' W 023°49'5 2.4
2018-Jun-17 05:00N 28°35' W 023°44'0 0.0
2018-Jun-17 04:00N 28°35' W 023°44'0 0.0
2018-Jun-17 00:00N 28°35' W 023°44'1 0.5
2018-Jun-16 23:00N 28°35' W 023°43'1 1.1
2018-Jun-16 22:00N 28°35' W 023°42'2 1.6
2018-Jun-16 21:00N 28°36' W 023°41'0 0.0
2018-Jun-16 20:00N 28°36' W 023°41'1 0.8
2018-Jun-16 19:00N 28°37' W 023°40'2 2.2
2018-Jun-16 18:00N 28°36' W 023°38'0 0.0
2018-Jun-16 17:00N 28°36' W 023°38'0 0.0
2018-Jun-16 15:00N 28°36' W 023°38'2 1.6
2018-Jun-16 14:00N 28°36' W 023°36'2 0.6
2018-Jun-16 11:00N 28°37' W 023°34'2 2.0
2018-Jun-16 10:00N 28°38' W 023°32'0 0.0
2018-Jun-16 09:00N 28°38' W 023°32'2 2.2
2018-Jun-16 08:00N 28°38' W 023°30'0 0.0
2018-Jun-16 07:00N 28°38' W 023°30'3 3.2
2018-Jun-16 06:00N 28°40' W 023°27'0 0.0
2018-Jun-16 05:00N 28°40' W 023°27'0 0.0
2018-Jun-16 04:00N 28°40' W 023°27'0 0.0
2018-Jun-15 23:00N 28°40' W 023°27'1 0.5
2018-Jun-15 22:00N 28°40' W 023°26'2 1.6
2018-Jun-15 21:00N 28°40' W 023°25'0 0.0
2018-Jun-15 20:00N 28°40' W 023°25'0 0.0
2018-Jun-15 19:00N 28°40' W 023°25'2 1.7
2018-Jun-15 18:00N 28°41' W 023°23'0 0.0
2018-Jun-15 17:00N 28°41' W 023°23'2 1.7
2018-Jun-15 16:00N 28°41' W 023°21'0 0.0
2018-Jun-15 15:00N 28°41' W 023°21'2 0.7
2018-Jun-15 12:00N 28°43' W 023°19'1 1.2
2018-Jun-15 11:00N 28°43' W 023°18'1 0.5
2018-Jun-15 10:00N 28°43' W 023°17'1 0.6
2018-Jun-15 09:00N 28°44' W 023°17'1 0.5
2018-Jun-15 08:00N 28°44' W 023°17'2 2.0
2018-Jun-15 07:00N 28°45' W 023°15'1 0.6
2018-Jun-15 06:00N 28°46' W 023°15'1 0.5
2018-Jun-15 05:00N 28°46' W 023°14'2 2.2
2018-Jun-15 04:00N 28°46' W 023°12'2 2.2
2018-Jun-15 03:00N 28°46' W 023°14'3 0.8
2018-Jun-14 23:00N 28°47' W 023°11'0 0.0
2018-Jun-14 22:00N 28°47' W 023°11'1 0.8
2018-Jun-14 21:00N 28°47' W 023°10'1 0.5
2018-Jun-14 20:00N 28°47' W 023°10'1 1.1
2018-Jun-14 19:00N 28°47' W 023°08'0 0.0
2018-Jun-14 18:00N 28°47' W 023°08'0 0.0
2018-Jun-14 17:00N 28°47' W 023°08'6 5.6
2018-Jun-14 16:00N 28°49' W 023°02'0 0.0
2018-Jun-14 15:00N 28°49' W 023°02'1 0.4
2018-Jun-14 12:00N 28°49' W 023°01'0 0.0
2018-Jun-14 11:00N 28°49' W 023°01'1 1.2
2018-Jun-14 10:00N 28°50' W 023°00'1 1.2
2018-Jun-14 09:00N 28°51' W 023°00'2 2.0
2018-Jun-14 08:00N 28°52' W 022°58'1 1.3
2018-Jun-14 07:00N 28°51' W 022°59'3 2.6
2018-Jun-14 06:00N 28°53' W 022°58'0 0.0
2018-Jun-14 05:00N 28°53' W 022°58'3 3.2
2018-Jun-14 04:00N 28°56' W 022°55'3 2.9
2018-Jun-14 03:00N 28°53' W 022°57'3 1.0
2018-Jun-14 00:00N 28°56' W 022°55'0 0.0
2018-Jun-13 23:00N 28°56' W 022°55'0 0.0
2018-Jun-13 22:00N 28°56' W 022°55'1 0.6
2018-Jun-13 21:00N 28°56' W 022°55'1 0.5
2018-Jun-13 19:00N 28°56' W 022°54'1 0.5
2018-Jun-13 18:00N 28°56' W 022°53'1 0.5
2018-Jun-13 17:00N 28°56' W 022°53'1 0.5
2018-Jun-13 16:00N 28°56' W 022°53'0 0.0
2018-Jun-13 15:00N 28°56' W 022°53'4 1.4
2018-Jun-13 12:00N 28°56' W 022°49'1 1.2
2018-Jun-13 11:00N 28°57' W 022°47'1 1.2
2018-Jun-13 10:00N 28°58' W 022°46'0 0.0
2018-Jun-13 09:00N 28°58' W 022°46'2 2.0
2018-Jun-13 08:00N 28°59' W 022°44'1 0.4
2018-Jun-13 06:00N 28°59' W 022°44'0 0.0
2018-Jun-13 05:00N 28°59' W 022°44'3 2.8
2018-Jun-13 04:00N 29°01' W 022°41'1 0.1
2018-Jun-12 23:00N 29°02' W 022°41'0 0.0
2018-Jun-12 22:00N 29°02' W 022°41'1 0.8
2018-Jun-12 21:00N 29°02' W 022°41'1 0.8
2018-Jun-12 20:00N 29°03' W 022°40'1 0.5
2018-Jun-12 19:00N 29°03' W 022°40'0 0.0
2018-Jun-12 18:00N 29°03' W 022°40'1 0.8
2018-Jun-12 17:00N 29°04' W 022°39'0 0.0
2018-Jun-12 16:00N 29°04' W 022°39'0 0.0
2018-Jun-12 15:00N 29°04' W 022°39'4 1.2
2018-Jun-12 12:00N 29°04' W 022°35'0 0.0
2018-Jun-12 11:00N 29°04' W 022°35'1 1.0
2018-Jun-12 10:00N 29°04' W 022°34'2 0.8
2018-Jun-12 08:00N 29°04' W 022°32'0 0.0
2018-Jun-12 07:00N 29°04' W 022°32'1 0.5
2018-Jun-12 06:00N 29°04' W 022°31'1 1.2
2018-Jun-12 05:00N 29°04' W 022°30'3 3.2
2018-Jun-12 04:00N 29°06' W 022°27'1 0.1
2018-Jun-11 23:00N 29°06' W 022°26'1 1.3
2018-Jun-11 22:00N 29°07' W 022°26'1 0.3
2018-Jun-11 20:00N 29°07' W 022°25'1 1.3
2018-Jun-11 19:00N 29°08' W 022°25'1 0.5
2018-Jun-11 18:00N 29°08' W 022°24'1 0.8
2018-Jun-11 17:00N 29°09' W 022°23'0 0.0
2018-Jun-11 16:00N 29°09' W 022°23'4 0.9
2018-Jun-11 11:00N 29°13' W 022°20'1 0.8
2018-Jun-11 10:00N 29°13' W 022°20'0 0.0
2018-Jun-11 08:00N 29°13' W 022°20'1 0.6
2018-Jun-11 07:00N 29°14' W 022°20'1 0.5
2018-Jun-11 06:00N 29°14' W 022°19'3 3.4
2018-Jun-11 05:00N 29°15' W 022°16'3 3.4
2018-Jun-11 04:00N 29°14' W 022°19'4 0.8
2018-Jun-10 23:00N 29°15' W 022°15'1 1.2
2018-Jun-10 22:00N 29°16' W 022°14'0 0.0
2018-Jun-10 21:00N 29°16' W 022°14'1 0.6
2018-Jun-10 20:00N 29°16' W 022°14'1 1.2
2018-Jun-10 19:00N 29°17' W 022°13'1 1.2
2018-Jun-10 18:00N 29°17' W 022°11'1 0.3
2018-Jun-10 16:00N 29°18' W 022°11'2 0.5
2018-Jun-10 12:00N 29°19' W 022°09'1 0.6
2018-Jun-10 11:00N 29°19' W 022°09'1 0.3
2018-Jun-10 09:00N 29°19' W 022°08'1 0.6
2018-Jun-10 08:00N 29°20' W 022°08'1 1.2
2018-Jun-10 07:00N 29°19' W 022°07'0 0.0
2018-Jun-10 06:00N 29°19' W 022°07'5 4.6
2018-Jun-10 05:00N 29°21' W 022°02'5 5.0
2018-Jun-10 04:00N 29°19' W 022°08'6 1.2
2018-Jun-09 23:00N 29°22' W 022°01'1 0.8
2018-Jun-09 22:00N 29°22' W 022°01'1 0.8
2018-Jun-09 21:00N 29°23' W 022°00'0 0.0
2018-Jun-09 20:00N 29°23' W 022°00'1 0.6
2018-Jun-09 19:00N 29°23' W 022°00'1 1.2
2018-Jun-09 18:00N 29°24' W 021°59'0 0.0
2018-Jun-09 17:00N 29°24' W 021°59'0 0.0
2018-Jun-09 16:00N 29°24' W 021°59'3 0.8
2018-Jun-09 12:00N 29°26' W 021°56'1 0.8
2018-Jun-09 11:00N 29°27' W 021°56'1 0.6
2018-Jun-09 10:00N 29°28' W 021°56'0 0.0
2018-Jun-09 09:00N 29°28' W 021°56'1 0.5
2018-Jun-09 08:00N 29°28' W 021°55'1 1.0
2018-Jun-09 07:00N 29°28' W 021°54'0 0.0
2018-Jun-09 06:00N 29°28' W 021°54'6 5.5
2018-Jun-09 05:00N 29°31' W 021°49'1 0.1
2018-Jun-08 23:00N 29°32' W 021°50'1 1.2
2018-Jun-08 22:00N 29°32' W 021°49'  

Dump ship's entire track history